Welcome to the Philippines vACC

Providing virtual air traffic control coverage to the 7,641 islands of the Philippines

vACC Philippines is a recognized member of the VATSIM network. We are dedicated to enhancing the online experience of both local and international virtual pilots. Mandated to provide professional and realistic air traffic operations.

vACC Philippines aims to provide the most realistic air traffic system simulation service that is close to the real thing as possible when flying on the VATSIM network.

VATSEA Logo
VATSIM Logo

Upcoming Event

Manila - Hong Kong Citylink

[09/18/2021] Manila - Hong Kong Citylink

READ MORE

Online Controllers

There are no available controllers at this time.

Weather

RPLL RPLL 182000Z VRB01KT 9999 FEW023 BKN090 27/26 Q1009 NOSIG RMK A2980
RPVM RPVM 182000Z 30003KT 9999 FEW018CB OVC100 26/23 Q1009 RMK A2980 CB NW-N-NE
RPMD RPMD 182000Z 00000KT 9000 -RA FEW015 BKN080 OVC260 24/24 Q1010 RMK A2983

Charts

Enter ICAO code starting with RP

Online Pilots

CEB013A333OMDB - RPLL